الصفحة الرئيسية
METAR-TAF:

METAR-TAF

مطار :

Salinas, الإكوادور

دائرة عرض: 02-12-18S, خط طول: 080-59-20W, ارتفاع: 5 متر

مراقبة الطقس الحالي

تاريخ ووقت الإصدار 49 دقيقة قبل الساعة 18:00UTC
ريح 5 عقدة من الغرب
درجة الحرارة 28°درجة مئوية
الرطوبة 84%
ضغط 1011 hPa
الرؤية 10 كم أو أكثر
غيوم قليلة على ارتفاع 700 قدم
غيوم متفرقة على ارتفاع 1300 قدم
غيوم مفككة على ارتفاع 8000 قدم
زخات في الجوار

METAR: SESA 041800Z 27005KT 9999 VCSH FEW007 SCT013 BKN080 28/25 Q1011 RMK A2986

زمن: 13:49 (18:49 UTC)


TAF: مفقودة

أرصاد الطقس والتوقعات من أكثر من 4000 مطار (تقارير الطقس للمطار METAR والتنبؤ بالطقس بالمطارTAF).

المحطات المتاحة هي النقط الصفراء والحمراء على الخريطة.

حرك المؤشر فوق النقطة لمعرفة اسم المحطة.

ثم انقر لمعرفة أرصاد وتوقعات الطقس.

لتغيير الخارطة: اضغط على الأزرار الخضراء مع رمز الصليب الأسود للتكبير. على الزر الأخضر مع شرطة للتصغير، أو على الأسهم الخضراء للخرائط المجاورة.


METAR-TAF: